LATI Airport Information

Runway Information
Runway 18 Length 8971 ft width 148 ft
Elevation 109 ft Threshold 0 ft Heading 174
Runway 36 Length 8971 ft Width 148 ft
Elevation 126 ft Threshold 0 ft Heading 354
Airport Frequencies
Type ACC Name ACC Frequency 127.5 MHZ
Type APP Name APP Frequency 133.15 MHZ
Type TWR Name TWR Frequency 122.5 MHZ
Airport Navaids
Type NDB Name Tirana Frequency 290 KHZ
Type VOR-DME Name Tirana Frequency 117700 KHZ
Airport Weather Information & NOTAM
ADDS - METARS form results

(2305 UTC 18 February 2019)
Data provider http://aviationweather.gov/metar/data/
 
METAR text: LATI 182250Z 17004KT 6000 NSC 02/01 Q1023 NOSIG
Conditions at: LATI (TIRANA , AL) observed 2250 UTC 18 February 2019
Temperature: 2.0°C (36°F)
Dewpoint: 1.0°C (34°F) [RH = 93%]
Pressure (altimeter): 30.21 inches Hg (1023.0 mb)
Winds: from the S (170 degrees) at 5 MPH (4 knots; 2.1 m/s)
Visibility: 4 miles ( 6 km)
Ceiling: at least 12,000 feet AGL
Clouds: sky clear below 12,000 feet AGL
Weather: no significant weather observed at this time

METAR text: LATI 182220Z 14003KT 6000 NSC 03/02 Q1023 NOSIG
Conditions at: LATI (TIRANA , AL) observed 2220 UTC 18 February 2019
Temperature: 3.0°C (37°F)
Dewpoint: 2.0°C (36°F) [RH = 93%]
Pressure (altimeter): 30.21 inches Hg (1023.0 mb)
Winds: from the SE (140 degrees) at 3 MPH (3 knots; 1.5 m/s)
Visibility: 4 miles ( 6 km)
Ceiling: at least 12,000 feet AGL
Clouds: sky clear below 12,000 feet AGL
Weather: no significant weather observed at this time

Forecast for: LATI (TIRANA , AL)
Text: TAF LATI 181700Z 1818/1918 VRB03KT CAVOK
Forecast period: 1800 UTC 18 February 2019 to 1000 UTC 19 February 2019
Forecast type: FROM: standard forecast or significant change
Winds: variable direction winds at 3 MPH (3 knots; 1.5 m/s)
Visibility: 6 or more miles 10+ km)
Ceiling: unknown
Clouds: missing
Weather: NSW  (no significant weather)
Text: TEMPO 1821/1904 3000 BR
Forecast period: 2100 UTC 18 February 2019 to 0400 UTC 19 February 2019
Forecast type: TEMPORARY: The following changes expected for less than half the time period
Visibility: 1.86 miles (2.99 km)
Ceiling: unknown
Clouds: missing
Weather: BR  (mist)
Text: BECMG 1910/1912 33010KT
Forecast period: 1000 to 1800 UTC 19 February 2019
Forecast type: BECOMING: Conditions expected to become as follows by 1200 UTC 19 February 2019
Winds: from the NNW (330 degrees) at 12 MPH (10 knots; 5.1 m/s)
Visibility: 6 or more miles 10+ km)
Ceiling: unknown
Clouds: missing
Weather: NSW  (no significant weather)